sensor_id;sensor_type;location;lat;lon;timestamp;pressure;altitude;pressure_sealevel;temperature;humidity
9281;BME280;4679;47.966;7.958;2022-07-29T06:33:34;97015.16;;;19.78;75.39
9281;BME280;4679;47.966;7.958;2022-07-29T06:35:36;97027.09;;;19.85;75.18
9281;BME280;4679;47.966;7.958;2022-07-29T06:37:39;97014.78;;;19.93;75.26
9281;BME280;4679;47.966;7.958;2022-07-29T06:39:41;97015.97;;;20.00;74.96
9281;BME280;4679;47.966;7.958;2022-07-29T06:41:46;97013.63;;;20.08;74.71
9281;BME280;4679;47.966;7.958;2022-07-29T06:43:48;97012.72;;;20.12;74.58
9281;BME280;4679;47.966;7.958;2022-07-29T06:45:51;97011.16;;;20.20;74.54
9281;BME280;4679;47.966;7.958;2022-07-29T06:47:53;97021.69;;;20.30;74.34
9281;BME280;4679;47.966;7.958;2022-07-29T06:49:56;97019.56;;;20.41;73.97
9281;BME280;4679;47.966;7.958;2022-07-29T06:51:58;97024.03;;;20.45;74.05
9281;BME280;4679;47.966;7.958;2022-07-29T06:54:00;97019.78;;;20.53;73.70
9281;BME280;4679;47.966;7.958;2022-07-29T06:56:03;97013.78;;;20.56;73.87
9281;BME280;4679;47.966;7.958;2022-07-29T06:58:05;97019.50;;;20.63;73.49
9281;BME280;4679;47.966;7.958;2022-07-29T07:00:09;97018.44;;;20.73;73.87
9281;BME280;4679;47.966;7.958;2022-07-29T07:02:11;97022.75;;;20.82;73.54
9281;BME280;4679;47.966;7.958;2022-07-29T07:04:12;97017.72;;;20.89;73.04
9281;BME280;4679;47.966;7.958;2022-07-29T07:06:15;97019.66;;;20.97;72.91
9281;BME280;4679;47.966;7.958;2022-07-29T07:08:17;97026.34;;;21.08;72.46
9281;BME280;4679;47.966;7.958;2022-07-29T07:10:19;97025.59;;;21.17;72.15
9281;BME280;4679;47.966;7.958;2022-07-29T07:12:21;97038.31;;;21.25;72.22
9281;BME280;4679;47.966;7.958;2022-07-29T07:14:23;97032.13;;;21.24;72.20
9281;BME280;4679;47.966;7.958;2022-07-29T07:16:26;97036.88;;;21.19;72.60
9281;BME280;4679;47.966;7.958;2022-07-29T07:18:28;97043.38;;;21.18;72.51
9281;BME280;4679;47.966;7.958;2022-07-29T07:20:30;97043.88;;;21.20;72.50
9281;BME280;4679;47.966;7.958;2022-07-29T07:22:33;97044.06;;;21.23;72.16
9281;BME280;4679;47.966;7.958;2022-07-29T07:24:35;97043.72;;;21.25;72.44
9281;BME280;4679;47.966;7.958;2022-07-29T07:26:36;97053.59;;;21.29;72.33
9281;BME280;4679;47.966;7.958;2022-07-29T07:28:39;97049.16;;;21.33;72.30
9281;BME280;4679;47.966;7.958;2022-07-29T07:30:41;97050.91;;;21.38;72.32
9281;BME280;4679;47.966;7.958;2022-07-29T07:32:43;97043.13;;;21.45;72.08
9281;BME280;4679;47.966;7.958;2022-07-29T07:34:45;97046.19;;;21.52;72.15
9281;BME280;4679;47.966;7.958;2022-07-29T07:36:46;97050.91;;;21.55;71.96
9281;BME280;4679;47.966;7.958;2022-07-29T07:38:50;97062.84;;;21.54;71.56
9281;BME280;4679;47.966;7.958;2022-07-29T07:40:51;97064.91;;;21.57;72.08
9281;BME280;4679;47.966;7.958;2022-07-29T07:42:53;97071.09;;;21.58;71.56
9281;BME280;4679;47.966;7.958;2022-07-29T07:44:55;97065.88;;;21.61;71.67
9281;BME280;4679;47.966;7.958;2022-07-29T07:46:57;97071.63;;;21.68;71.55
9281;BME280;4679;47.966;7.958;2022-07-29T07:48:59;97074.16;;;21.73;71.21
9281;BME280;4679;47.966;7.958;2022-07-29T07:51:00;97075.28;;;21.81;71.31
9281;BME280;4679;47.966;7.958;2022-07-29T07:53:02;97074.16;;;21.91;70.91
9281;BME280;4679;47.966;7.958;2022-07-29T07:55:06;97080.22;;;21.96;70.63
9281;BME280;4679;47.966;7.958;2022-07-29T07:57:08;97081.50;;;21.99;70.27
9281;BME280;4679;47.966;7.958;2022-07-29T07:59:10;97084.84;;;22.04;70.04
9281;BME280;4679;47.966;7.958;2022-07-29T08:01:12;97083.41;;;22.07;70.01
9281;BME280;4679;47.966;7.958;2022-07-29T08:03:13;97088.81;;;22.07;70.26
9281;BME280;4679;47.966;7.958;2022-07-29T08:05:15;97085.31;;;21.98;70.15
9281;BME280;4679;47.966;7.958;2022-07-29T08:07:18;97083.88;;;22.00;70.20
9281;BME280;4679;47.966;7.958;2022-07-29T08:09:20;97087.06;;;22.02;69.93
9281;BME280;4679;47.966;7.958;2022-07-29T08:11:23;97082.31;;;21.99;69.87
9281;BME280;4679;47.966;7.958;2022-07-29T08:13:26;97081.50;;;21.99;69.79
9281;BME280;4679;47.966;7.958;2022-07-29T08:15:35;97071.81;;;22.06;69.25
9281;BME280;4679;47.966;7.958;2022-07-29T08:17:38;97069.25;;;22.19;68.83
9281;BME280;4679;47.966;7.958;2022-07-29T08:19:41;97068.28;;;22.32;68.02
9281;BME280;4679;47.966;7.958;2022-07-29T08:21:43;97067.16;;;22.41;68.20
9281;BME280;4679;47.966;7.958;2022-07-29T08:23:45;97070.47;;;22.47;67.82
9281;BME280;4679;47.966;7.958;2022-07-29T08:25:49;97071.91;;;22.53;67.62
9281;BME280;4679;47.966;7.958;2022-07-29T08:27:52;97071.75;;;22.58;67.35
9281;BME280;4679;47.966;7.958;2022-07-29T08:29:54;97070.47;;;22.56;67.09
9281;BME280;4679;47.966;7.958;2022-07-29T08:31:56;97072.06;;;22.48;66.79
9281;BME280;4679;47.966;7.958;2022-07-29T08:33:58;97065.22;;;22.51;67.02
9281;BME280;4679;47.966;7.958;2022-07-29T08:36:01;97074.56;;;22.70;66.72
9281;BME280;4679;47.966;7.958;2022-07-29T08:38:03;97070.09;;;22.83;66.01
9281;BME280;4679;47.966;7.958;2022-07-29T08:40:05;97075.16;;;22.93;65.78
9281;BME280;4679;47.966;7.958;2022-07-29T08:42:07;97078.63;;;23.02;65.79
9281;BME280;4679;47.966;7.958;2022-07-29T08:44:11;97076.09;;;23.06;65.65
9281;BME280;4679;47.966;7.958;2022-07-29T08:46:13;97079.38;;;23.11;65.43
9281;BME280;4679;47.966;7.958;2022-07-29T08:48:17;97071.69;;;23.22;65.00
9281;BME280;4679;47.966;7.958;2022-07-29T08:50:19;97080.09;;;23.29;65.04
9281;BME280;4679;47.966;7.958;2022-07-29T08:52:21;97076.28;;;23.30;64.91
9281;BME280;4679;47.966;7.958;2022-07-29T08:54:27;97083.78;;;23.25;64.88
9281;BME280;4679;47.966;7.958;2022-07-29T08:56:29;97083.94;;;23.28;64.69
9281;BME280;4679;47.966;7.958;2022-07-29T08:58:32;97081.38;;;23.32;64.41
9281;BME280;4679;47.966;7.958;2022-07-29T09:00:36;97083.44;;;23.35;64.45
9281;BME280;4679;47.966;7.958;2022-07-29T09:02:40;97084.34;;;23.39;64.19
9281;BME280;4679;47.966;7.958;2022-07-29T09:04:43;97079.53;;;23.44;64.04
9281;BME280;4679;47.966;7.958;2022-07-29T09:06:47;97078.81;;;23.35;64.27
9281;BME280;4679;47.966;7.958;2022-07-29T09:08:49;97077.69;;;23.36;64.29
9281;BME280;4679;47.966;7.958;2022-07-29T09:10:51;97085.59;;;23.41;64.08
9281;BME280;4679;47.966;7.958;2022-07-29T09:12:54;97087.19;;;23.42;63.71
9281;BME280;4679;47.966;7.958;2022-07-29T09:14:56;97088.16;;;23.38;64.00
9281;BME280;4679;47.966;7.958;2022-07-29T09:16:59;97073.88;;;23.37;63.90
9281;BME280;4679;47.966;7.958;2022-07-29T09:19:01;97082.44;;;23.39;63.83
9281;BME280;4679;47.966;7.958;2022-07-29T09:21:03;97077.94;;;23.43;63.39
9281;BME280;4679;47.966;7.958;2022-07-29T09:23:23;97073.81;;;23.46;63.26
9281;BME280;4679;47.966;7.958;2022-07-29T09:25:32;97078.91;;;23.47;63.30
9281;BME280;4679;47.966;7.958;2022-07-29T09:27:34;97081.78;;;23.51;62.91
9281;BME280;4679;47.966;7.958;2022-07-29T09:29:36;97075.81;;;23.58;62.75
9281;BME280;4679;47.966;7.958;2022-07-29T09:31:41;97079.28;;;23.67;62.52
9281;BME280;4679;47.966;7.958;2022-07-29T09:33:44;97076.19;;;23.77;62.31
9281;BME280;4679;47.966;7.958;2022-07-29T09:35:45;97080.09;;;23.88;61.95
9281;BME280;4679;47.966;7.958;2022-07-29T09:37:47;97072.41;;;23.90;61.78
9281;BME280;4679;47.966;7.958;2022-07-29T09:39:49;97083.88;;;23.96;61.52
9281;BME280;4679;47.966;7.958;2022-07-29T09:41:52;97089.19;;;24.04;61.24
9281;BME280;4679;47.966;7.958;2022-07-29T09:43:55;97082.84;;;24.00;61.10
9281;BME280;4679;47.966;7.958;2022-07-29T09:46:09;97085.22;;;24.02;61.02
9281;BME280;4679;47.966;7.958;2022-07-29T09:48:16;97084.25;;;24.06;60.70
9281;BME280;4679;47.966;7.958;2022-07-29T09:50:20;97075.50;;;24.01;60.56
9281;BME280;4679;47.966;7.958;2022-07-29T09:52:25;97083.13;;;24.07;60.23
9281;BME280;4679;47.966;7.958;2022-07-29T09:54:27;97083.38;;;24.14;60.27
9281;BME280;4679;47.966;7.958;2022-07-29T09:56:40;97078.50;;;24.08;60.01
9281;BME280;4679;47.966;7.958;2022-07-29T09:58:42;97081.41;;;24.03;60.01
9281;BME280;4679;47.966;7.958;2022-07-29T10:00:45;97084.84;;;24.12;60.41
9281;BME280;4679;47.966;7.958;2022-07-29T10:02:47;97079.00;;;24.22;59.45
9281;BME280;4679;47.966;7.958;2022-07-29T10:04:50;97082.47;;;24.31;59.34
9281;BME280;4679;47.966;7.958;2022-07-29T10:06:57;97079.97;;;24.26;59.47
9281;BME280;4679;47.966;7.958;2022-07-29T10:09:17;97076.72;;;24.12;59.50
9281;BME280;4679;47.966;7.958;2022-07-29T10:11:19;97080.56;;;24.11;59.06
9281;BME280;4679;47.966;7.958;2022-07-29T10:13:21;97082.34;;;24.07;59.20
9281;BME280;4679;47.966;7.958;2022-07-29T10:15:25;97072.16;;;24.04;59.35
9281;BME280;4679;47.966;7.958;2022-07-29T10:17:27;97072.75;;;24.09;58.88
9281;BME280;4679;47.966;7.958;2022-07-29T10:19:30;97075.94;;;24.11;58.83
9281;BME280;4679;47.966;7.958;2022-07-29T10:21:32;97072.19;;;24.16;58.75
9281;BME280;4679;47.966;7.958;2022-07-29T10:23:36;97076.81;;;24.15;58.89
9281;BME280;4679;47.966;7.958;2022-07-29T10:25:38;97069.38;;;24.12;58.56
9281;BME280;4679;47.966;7.958;2022-07-29T10:27:40;97063.25;;;24.15;58.29
9281;BME280;4679;47.966;7.958;2022-07-29T10:29:42;97067.47;;;24.13;58.25
9281;BME280;4679;47.966;7.958;2022-07-29T10:31:50;97060.22;;;24.17;58.05
9281;BME280;4679;47.966;7.958;2022-07-29T10:34:04;97066.41;;;24.26;57.71
9281;BME280;4679;47.966;7.958;2022-07-29T10:36:22;97064.88;;;24.37;57.35
9281;BME280;4679;47.966;7.958;2022-07-29T10:38:42;97074.81;;;24.45;57.11
9281;BME280;4679;47.966;7.958;2022-07-29T10:40:52;97077.59;;;24.58;56.80
9281;BME280;4679;47.966;7.958;2022-07-29T10:43:18;97079.88;;;24.68;56.71
9281;BME280;4679;47.966;7.958;2022-07-29T10:45:21;97079.66;;;24.73;56.51
9281;BME280;4679;47.966;7.958;2022-07-29T10:47:25;97077.31;;;24.83;56.13
9281;BME280;4679;47.966;7.958;2022-07-29T10:49:27;97080.41;;;24.94;55.91
9281;BME280;4679;47.966;7.958;2022-07-29T10:51:51;97077.94;;;25.01;55.60
9281;BME280;4679;47.966;7.958;2022-07-29T10:53:54;97076.56;;;24.95;55.40
9281;BME280;4679;47.966;7.958;2022-07-29T10:55:56;97075.38;;;24.84;55.71
9281;BME280;4679;47.966;7.958;2022-07-29T10:58:16;97077.44;;;24.87;55.34
9281;BME280;4679;47.966;7.958;2022-07-29T11:00:31;97078.50;;;25.07;55.16
9281;BME280;4679;47.966;7.958;2022-07-29T11:02:44;97087.69;;;25.14;54.69
9281;BME280;4679;47.966;7.958;2022-07-29T11:05:01;97081.78;;;25.24;54.46
9281;BME280;4679;47.966;7.958;2022-07-29T11:07:06;97082.22;;;25.39;53.89
9281;BME280;4679;47.966;7.958;2022-07-29T11:09:17;97081.22;;;25.43;54.05
9281;BME280;4679;47.966;7.958;2022-07-29T11:11:34;97086.53;;;25.52;53.55
9281;BME280;4679;47.966;7.958;2022-07-29T11:13:47;97079.75;;;25.58;53.75
9281;BME280;4679;47.966;7.958;2022-07-29T11:15:56;97084.19;;;25.63;53.13
9281;BME280;4679;47.966;7.958;2022-07-29T11:18:07;97078.84;;;25.78;52.74
9281;BME280;4679;47.966;7.958;2022-07-29T11:20:36;97079.03;;;25.85;52.61
9281;BME280;4679;47.966;7.958;2022-07-29T11:22:38;97072.28;;;25.67;53.14
9281;BME280;4679;47.966;7.958;2022-07-29T11:24:41;97072.03;;;25.60;52.86
9281;BME280;4679;47.966;7.958;2022-07-29T11:26:43;97087.03;;;25.66;52.80
9281;BME280;4679;47.966;7.958;2022-07-29T11:28:54;97081.59;;;25.66;52.55
9281;BME280;4679;47.966;7.958;2022-07-29T11:30:59;97090.28;;;25.72;52.34
9281;BME280;4679;47.966;7.958;2022-07-29T11:33:02;97089.50;;;25.71;52.40
9281;BME280;4679;47.966;7.958;2022-07-29T11:35:15;97098.66;;;25.54;52.28
9281;BME280;4679;47.966;7.958;2022-07-29T11:37:21;97100.13;;;25.40;52.58
9281;BME280;4679;47.966;7.958;2022-07-29T11:39:26;97098.44;;;25.35;52.68
9281;BME280;4679;47.966;7.958;2022-07-29T11:41:30;97097.06;;;25.41;52.46
9281;BME280;4679;47.966;7.958;2022-07-29T11:43:48;97098.31;;;25.44;51.96
9281;BME280;4679;47.966;7.958;2022-07-29T11:45:51;97094.94;;;25.47;51.70
9281;BME280;4679;47.966;7.958;2022-07-29T11:47:55;97090.84;;;25.41;51.98
9281;BME280;4679;47.966;7.958;2022-07-29T11:49:59;97089.50;;;25.35;52.04
9281;BME280;4679;47.966;7.958;2022-07-29T11:52:01;97088.25;;;25.32;52.00
9281;BME280;4679;47.966;7.958;2022-07-29T11:54:04;97092.91;;;25.32;51.99
9281;BME280;4679;47.966;7.958;2022-07-29T11:56:08;97094.34;;;25.29;51.59
9281;BME280;4679;47.966;7.958;2022-07-29T11:58:11;97091.75;;;25.33;51.24
9281;BME280;4679;47.966;7.958;2022-07-29T12:00:24;97092.78;;;25.28;51.40
9281;BME280;4679;47.966;7.958;2022-07-29T12:02:38;97093.56;;;25.41;51.14
9281;BME280;4679;47.966;7.958;2022-07-29T12:04:48;97098.78;;;25.46;51.11
9281;BME280;4679;47.966;7.958;2022-07-29T12:06:50;97093.13;;;25.51;50.70
9281;BME280;4679;47.966;7.958;2022-07-29T12:08:52;97100.13;;;25.52;50.65
9281;BME280;4679;47.966;7.958;2022-07-29T12:10:54;97093.78;;;25.60;50.79
9281;BME280;4679;47.966;7.958;2022-07-29T12:12:56;97091.41;;;25.71;50.51
9281;BME280;4679;47.966;7.958;2022-07-29T12:15:10;97092.66;;;25.73;50.28
9281;BME280;4679;47.966;7.958;2022-07-29T12:17:26;97104.88;;;25.67;50.49
9281;BME280;4679;47.966;7.958;2022-07-29T12:19:28;97086.13;;;25.62;50.32
9281;BME280;4679;47.966;7.958;2022-07-29T12:21:43;97094.91;;;25.59;50.46
9281;BME280;4679;47.966;7.958;2022-07-29T12:23:52;97102.59;;;25.57;50.40
9281;BME280;4679;47.966;7.958;2022-07-29T12:25:55;97108.63;;;25.50;50.33
9281;BME280;4679;47.966;7.958;2022-07-29T12:27:58;97104.53;;;25.44;50.49
9281;BME280;4679;47.966;7.958;2022-07-29T12:30:03;97109.44;;;25.51;50.27
9281;BME280;4679;47.966;7.958;2022-07-29T12:32:05;97107.94;;;25.53;49.85
9281;BME280;4679;47.966;7.958;2022-07-29T12:34:07;97108.25;;;25.52;49.94
9281;BME280;4679;47.966;7.958;2022-07-29T12:36:09;97116.09;;;25.53;50.46
9281;BME280;4679;47.966;7.958;2022-07-29T12:38:11;97115.28;;;25.53;49.86
9281;BME280;4679;47.966;7.958;2022-07-29T12:40:15;97116.78;;;25.50;50.06
9281;BME280;4679;47.966;7.958;2022-07-29T12:42:17;97119.38;;;25.47;50.31
9281;BME280;4679;47.966;7.958;2022-07-29T12:44:19;97116.53;;;25.43;50.12
9281;BME280;4679;47.966;7.958;2022-07-29T12:46:22;97117.69;;;25.42;50.29
9281;BME280;4679;47.966;7.958;2022-07-29T12:48:34;97108.94;;;25.37;50.21
9281;BME280;4679;47.966;7.958;2022-07-29T12:50:37;97110.66;;;25.29;50.46
9281;BME280;4679;47.966;7.958;2022-07-29T12:52:52;97106.03;;;25.30;49.92
9281;BME280;4679;47.966;7.958;2022-07-29T12:54:54;97111.13;;;25.31;49.89
9281;BME280;4679;47.966;7.958;2022-07-29T12:56:58;97105.81;;;25.35;50.26
9281;BME280;4679;47.966;7.958;2022-07-29T12:59:11;97109.88;;;25.29;50.00
9281;BME280;4679;47.966;7.958;2022-07-29T13:01:15;97107.16;;;25.29;49.95
9281;BME280;4679;47.966;7.958;2022-07-29T13:03:19;97108.41;;;25.31;49.94
9281;BME280;4679;47.966;7.958;2022-07-29T13:05:21;97102.72;;;25.36;49.70
9281;BME280;4679;47.966;7.958;2022-07-29T13:07:27;97110.66;;;25.29;49.85
9281;BME280;4679;47.966;7.958;2022-07-29T13:09:36;97104.44;;;25.29;49.92
9281;BME280;4679;47.966;7.958;2022-07-29T13:11:40;97102.72;;;25.24;49.89
9281;BME280;4679;47.966;7.958;2022-07-29T13:13:50;97101.59;;;25.25;50.15
9281;BME280;4679;47.966;7.958;2022-07-29T13:16:06;97096.63;;;25.27;49.92
9281;BME280;4679;47.966;7.958;2022-07-29T13:18:28;97094.69;;;25.28;49.69
9281;BME280;4679;47.966;7.958;2022-07-29T13:20:30;97097.19;;;25.33;49.66
9281;BME280;4679;47.966;7.958;2022-07-29T13:22:32;97099.66;;;25.26;49.58
9281;BME280;4679;47.966;7.958;2022-07-29T13:24:45;97099.00;;;25.29;49.74
9281;BME280;4679;47.966;7.958;2022-07-29T13:26:47;97100.00;;;25.36;49.70
9281;BME280;4679;47.966;7.958;2022-07-29T13:28:48;97095.94;;;25.42;49.51
9281;BME280;4679;47.966;7.958;2022-07-29T13:30:50;97095.59;;;25.32;49.66
9281;BME280;4679;47.966;7.958;2022-07-29T13:32:52;97101.13;;;25.23;49.69
9281;BME280;4679;47.966;7.958;2022-07-29T13:34:58;97093.31;;;25.21;49.45
9281;BME280;4679;47.966;7.958;2022-07-29T13:37:00;97098.66;;;25.18;49.32
9281;BME280;4679;47.966;7.958;2022-07-29T13:39:02;97091.06;;;25.23;49.52
9281;BME280;4679;47.966;7.958;2022-07-29T13:41:05;97091.06;;;25.23;49.40
9281;BME280;4679;47.966;7.958;2022-07-29T13:43:08;97094.69;;;25.28;49.13
9281;BME280;4679;47.966;7.958;2022-07-29T13:45:11;97093.56;;;25.29;49.09
9281;BME280;4679;47.966;7.958;2022-07-29T13:47:12;97099.00;;;25.29;48.94
9281;BME280;4679;47.966;7.958;2022-07-29T13:49:14;97092.56;;;25.33;48.71
9281;BME280;4679;47.966;7.958;2022-07-29T13:51:17;97096.28;;;25.41;48.50
9281;BME280;4679;47.966;7.958;2022-07-29T13:53:19;97091.75;;;25.45;48.34
9281;BME280;4679;47.966;7.958;2022-07-29T13:55:21;97087.78;;;25.42;48.24
9281;BME280;4679;47.966;7.958;2022-07-29T13:57:22;97083.59;;;25.45;48.19
9281;BME280;4679;47.966;7.958;2022-07-29T13:59:24;97083.59;;;25.45;47.72
9281;BME280;4679;47.966;7.958;2022-07-29T14:01:26;97081.91;;;25.40;47.84
9281;BME280;4679;47.966;7.958;2022-07-29T14:03:27;97081.91;;;25.40;48.05
9281;BME280;4679;47.966;7.958;2022-07-29T14:05:29;97073.75;;;25.40;47.20
9281;BME280;4679;47.966;7.958;2022-07-29T14:07:32;97078.28;;;25.48;47.29
9281;BME280;4679;47.966;7.958;2022-07-29T14:09:34;97082.69;;;25.53;47.36
9281;BME280;4679;47.966;7.958;2022-07-29T14:11:36;97087.78;;;25.54;47.01
9281;BME280;4679;47.966;7.958;2022-07-29T14:13:38;97091.28;;;25.55;47.48
9281;BME280;4679;47.966;7.958;2022-07-29T14:15:40;97094.47;;;25.57;47.26
9281;BME280;4679;47.966;7.958;2022-07-29T14:17:42;97096.19;;;25.49;47.17
9281;BME280;4679;47.966;7.958;2022-07-29T14:19:43;97088.38;;;25.48;47.16
9281;BME280;4679;47.966;7.958;2022-07-29T14:21:45;97085.66;;;25.48;47.33
9281;BME280;4679;47.966;7.958;2022-07-29T14:23:48;97086.44;;;25.48;47.28
9281;BME280;4679;47.966;7.958;2022-07-29T14:25:51;97091.75;;;25.57;47.24
9281;BME280;4679;47.966;7.958;2022-07-29T14:27:52;97096.50;;;25.60;46.95
9281;BME280;4679;47.966;7.958;2022-07-29T14:29:54;97087.22;;;25.61;47.10
9281;BME280;4679;47.966;7.958;2022-07-29T14:31:56;97094.72;;;25.64;47.05
9281;BME280;4679;47.966;7.958;2022-07-29T14:33:58;97103.66;;;25.65;47.06
9281;BME280;4679;47.966;7.958;2022-07-29T14:36:00;97094.91;;;25.59;46.97
9281;BME280;4679;47.966;7.958;2022-07-29T14:38:02;97105.66;;;25.55;46.99
9281;BME280;4679;47.966;7.958;2022-07-29T14:40:07;97106.94;;;25.46;47.20
9281;BME280;4679;47.966;7.958;2022-07-29T14:42:09;97111.66;;;25.37;47.20
9281;BME280;4679;47.966;7.958;2022-07-29T14:44:11;97103.09;;;25.35;47.34
9281;BME280;4679;47.966;7.958;2022-07-29T14:46:13;97107.03;;;25.37;47.01
9281;BME280;4679;47.966;7.958;2022-07-29T14:48:15;97099.56;;;25.34;47.10
9281;BME280;4679;47.966;7.958;2022-07-29T14:50:17;97106.03;;;25.30;47.26
9281;BME280;4679;47.966;7.958;2022-07-29T14:52:19;97110.78;;;25.33;46.96
9281;BME280;4679;47.966;7.958;2022-07-29T14:54:21;97108.06;;;25.33;46.71
9281;BME280;4679;47.966;7.958;2022-07-29T14:56:24;97114.63;;;25.32;46.79
9281;BME280;4679;47.966;7.958;2022-07-29T14:58:27;97115.53;;;25.36;46.59
9281;BME280;4679;47.966;7.958;2022-07-29T15:00:29;97112.25;;;25.42;46.38
9281;BME280;4679;47.966;7.958;2022-07-29T15:02:32;97120.19;;;25.47;46.43
9281;BME280;4679;47.966;7.958;2022-07-29T15:04:34;97116.66;;;25.47;46.54
9281;BME280;4679;47.966;7.958;2022-07-29T15:06:36;97123.09;;;25.42;46.51
9281;BME280;4679;47.966;7.958;2022-07-29T15:08:38;97119.03;;;25.48;46.01
9281;BME280;4679;47.966;7.958;2022-07-29T15:10:39;97118.34;;;25.51;46.33
9281;BME280;4679;47.966;7.958;2022-07-29T15:12:43;97121.44;;;25.50;46.09
9281;BME280;4679;47.966;7.958;2022-07-29T15:14:44;97128.22;;;25.44;46.33
9281;BME280;4679;47.966;7.958;2022-07-29T15:16:46;97127.88;;;25.45;46.07
9281;BME280;4679;47.966;7.958;2022-07-29T15:18:48;97120.50;;;25.46;46.19
9281;BME280;4679;47.966;7.958;2022-07-29T15:20:50;97115.41;;;25.44;45.97
9281;BME280;4679;47.966;7.958;2022-07-29T15:22:51;97115.63;;;25.39;46.01
9281;BME280;4679;47.966;7.958;2022-07-29T15:24:53;97121.66;;;25.33;46.05
9281;BME280;4679;47.966;7.958;2022-07-29T15:26:55;97112.59;;;25.29;45.87
9281;BME280;4679;47.966;7.958;2022-07-29T15:28:58;97113.84;;;25.31;45.98
9281;BME280;4679;47.966;7.958;2022-07-29T15:31:00;97116.44;;;25.28;45.98
9281;BME280;4679;47.966;7.958;2022-07-29T15:33:02;97107.81;;;25.26;45.80
9281;BME280;4679;47.966;7.958;2022-07-29T15:35:05;97114.84;;;25.27;45.70
9281;BME280;4679;47.966;7.958;2022-07-29T15:37:06;97111.78;;;25.28;45.49
9281;BME280;4679;47.966;7.958;2022-07-29T15:39:08;97118.00;;;25.29;45.65
9281;BME280;4679;47.966;7.958;2022-07-29T15:41:13;97115.28;;;25.29;45.40
9281;BME280;4679;47.966;7.958;2022-07-29T15:43:15;97115.75;;;25.31;45.45
9281;BME280;4679;47.966;7.958;2022-07-29T15:45:18;97116.22;;;25.33;45.29
9281;BME280;4679;47.966;7.958;2022-07-29T15:47:20;97116.66;;;25.35;44.97
9281;BME280;4679;47.966;7.958;2022-07-29T15:49:21;97112.81;;;25.36;44.95
9281;BME280;4679;47.966;7.958;2022-07-29T15:51:23;97110.00;;;25.32;44.79
9281;BME280;4679;47.966;7.958;2022-07-29T15:53:25;97112.81;;;25.36;44.54
9281;BME280;4679;47.966;7.958;2022-07-29T15:55:27;97116.00;;;25.50;44.16
9281;BME280;4679;47.966;7.958;2022-07-29T15:57:29;97113.50;;;25.45;44.27
9281;BME280;4679;47.966;7.958;2022-07-29T15:59:31;97109.06;;;25.40;44.43
9281;BME280;4679;47.966;7.958;2022-07-29T16:01:34;97103.09;;;25.35;44.50
9281;BME280;4679;47.966;7.958;2022-07-29T16:03:36;97101.72;;;25.41;43.67
9281;BME280;4679;47.966;7.958;2022-07-29T16:05:38;97097.06;;;25.53;43.77
9281;BME280;4679;47.966;7.958;2022-07-29T16:07:39;97100.00;;;25.61;43.63
9281;BME280;4679;47.966;7.958;2022-07-29T16:09:41;97106.06;;;25.66;43.25
9281;BME280;4679;47.966;7.958;2022-07-29T16:11:43;97099.22;;;25.60;43.51
9281;BME280;4679;47.966;7.958;2022-07-29T16:13:48;97096.31;;;25.65;43.23
9281;BME280;4679;47.966;7.958;2022-07-29T16:15:49;97105.13;;;25.74;43.49
9281;BME280;4679;47.966;7.958;2022-07-29T16:17:52;97095.69;;;25.84;43.42
9281;BME280;4679;47.966;7.958;2022-07-29T16:19:54;97100.69;;;25.82;43.39
9281;BME280;4679;47.966;7.958;2022-07-29T16:21:56;97093.56;;;25.77;43.26
9281;BME280;4679;47.966;7.958;2022-07-29T16:23:58;97095.03;;;25.75;43.23
9281;BME280;4679;47.966;7.958;2022-07-29T16:26:00;97092.88;;;25.80;42.90
9281;BME280;4679;47.966;7.958;2022-07-29T16:28:02;97098.22;;;25.77;42.59
9281;BME280;4679;47.966;7.958;2022-07-29T16:30:05;97087.44;;;25.80;42.55
9281;BME280;4679;47.966;7.958;2022-07-29T16:32:08;97087.75;;;25.91;42.36
9281;BME280;4679;47.966;7.958;2022-07-29T16:34:11;97091.03;;;25.97;42.14
9281;BME280;4679;47.966;7.958;2022-07-29T16:36:13;97092.72;;;26.01;42.39
9281;BME280;4679;47.966;7.958;2022-07-29T16:38:15;97093.50;;;26.02;42.08
9281;BME280;4679;47.966;7.958;2022-07-29T16:40:17;97087.38;;;26.05;41.81
9281;BME280;4679;47.966;7.958;2022-07-29T16:42:19;97083.53;;;26.06;41.99
9281;BME280;4679;47.966;7.958;2022-07-29T16:44:20;97090.56;;;26.07;41.98
9281;BME280;4679;47.966;7.958;2022-07-29T16:46:22;97088.50;;;26.04;41.57
9281;BME280;4679;47.966;7.958;2022-07-29T16:48:24;97089.41;;;26.08;41.53
9281;BME280;4679;47.966;7.958;2022-07-29T16:50:27;97084.31;;;26.06;41.67
9281;BME280;4679;47.966;7.958;2022-07-29T16:52:29;97086.47;;;26.01;41.28
9281;BME280;4679;47.966;7.958;2022-07-29T16:54:30;97081.28;;;25.96;41.56
9281;BME280;4679;47.966;7.958;2022-07-29T16:56:32;97087.19;;;25.85;41.27
9281;BME280;4679;47.966;7.958;2022-07-29T16:58:34;97085.16;;;25.82;41.46
9281;BME280;4679;47.966;7.958;2022-07-29T17:00:36;97077.72;;;25.79;41.36
9281;BME280;4679;47.966;7.958;2022-07-29T17:02:38;97083.47;;;25.78;41.66
9281;BME280;4679;47.966;7.958;2022-07-29T17:04:39;97079.97;;;25.77;41.63
9281;BME280;4679;47.966;7.958;2022-07-29T17:06:43;97073.75;;;25.77;41.68
9281;BME280;4679;47.966;7.958;2022-07-29T17:08:44;97082.25;;;25.75;41.45
9281;BME280;4679;47.966;7.958;2022-07-29T17:10:46;97080.31;;;25.76;41.66
9281;BME280;4679;47.966;7.958;2022-07-29T17:12:48;97075.31;;;25.78;41.32
9281;BME280;4679;47.966;7.958;2022-07-29T17:14:50;97080.66;;;25.74;41.58
9281;BME280;4679;47.966;7.958;2022-07-29T17:16:53;97084.03;;;25.71;41.45
9281;BME280;4679;47.966;7.958;2022-07-29T17:18:56;97085.78;;;25.64;41.07
9281;BME280;4679;47.966;7.958;2022-07-29T17:20:57;97091.06;;;25.60;41.77
9281;BME280;4679;47.966;7.958;2022-07-29T17:23:01;97093.78;;;25.60;41.60
9281;BME280;4679;47.966;7.958;2022-07-29T17:25:03;97092.41;;;25.54;41.74
9281;BME280;4679;47.966;7.958;2022-07-29T17:27:05;97091.06;;;25.48;41.31
9281;BME280;4679;47.966;7.958;2022-07-29T17:29:07;97096.50;;;25.48;41.58
9281;BME280;4679;47.966;7.958;2022-07-29T17:31:09;97094.69;;;25.40;41.22
9281;BME280;4679;47.966;7.958;2022-07-29T17:33:18;97096.53;;;25.36;41.37
9281;BME280;4679;47.966;7.958;2022-07-29T17:35:23;97100.13;;;25.28;41.60
9281;BME280;4679;47.966;7.958;2022-07-29T17:37:47;97094.91;;;25.22;41.43
9281;BME280;4679;47.966;7.958;2022-07-29T17:39:53;97097.97;;;25.21;41.37
9281;BME280;4679;47.966;7.958;2022-07-29T17:41:55;97095.59;;;25.19;41.56
9281;BME280;4679;47.966;7.958;2022-07-29T17:43:58;97102.16;;;25.18;41.54
9281;BME280;4679;47.966;7.958;2022-07-29T17:46:00;97100.47;;;25.14;41.35
9281;BME280;4679;47.966;7.958;2022-07-29T17:48:06;97101.13;;;25.11;41.31